DTTX/SFA METAR and TAF weather

Enter ICAO airport designator
Station Type Date Time Source
DTTX METAR 2019/08/25 07:00 UTC NOAA

DTTX 250700Z 10007KT 9999 FEW033 29/22 Q1015


Station Type Date Time Source
DTTX Decoded METAR 2019/08/25 07:00 UTC NOAA

Station name not available
Aug 25, 2019 - 03:00 AM EDT / 2019.08.25 0700 UTC
Wind: from the E (100 degrees) at 8 MPH (7 KT):0
Visibility: greater than 7 mile(s):0
Sky conditions: mostly clear
Temperature: 84 F (29 C)
Dew Point: 71 F (22 C)
Relative Humidity: 65%
Pressure (altimeter): 29.97 in. Hg (1015 hPa)
ob: DTTX 250700Z 10007KT 9999 FEW033 29/22 Q1015
cycle: 7

Station Type Date Time Source
DTTX TAF 2019/08/25 06:54 UTC NOAA

TAF DTTX 250500Z 2506/2606 33005KT 9999 FEW033
BECMG 2510/2512 11010KT
BECMG 2522/2524 09005KT

Example: see airport list